createdAt,value
2023-03-26T00:01:29.721Z,69.26
2023-03-26T00:03:57.492Z,69.20
2023-03-26T00:06:26.984Z,69.83
2023-03-26T00:08:54.517Z,68.95
2023-03-26T00:11:22.998Z,69.04
2023-03-26T00:13:50.685Z,69.21
2023-03-26T00:16:19.776Z,68.39
2023-03-26T00:18:48.958Z,68.88
2023-03-26T00:21:17.751Z,68.57
2023-03-26T00:23:44.794Z,68.28
2023-03-26T00:26:11.475Z,68.03
2023-03-26T00:28:40.524Z,68.44
2023-03-26T00:31:10.660Z,68.43
2023-03-26T00:33:40.729Z,70.70
2023-03-26T00:36:10.981Z,70.11
2023-03-26T00:38:41.466Z,71.47
2023-03-26T00:41:18.058Z,69.58
2023-03-26T00:43:48.921Z,69.95
2023-03-26T00:46:17.501Z,70.07
2023-03-26T00:48:46.010Z,69.85
2023-03-26T00:51:18.110Z,70.09
2023-03-26T00:53:47.029Z,70.59
2023-03-26T00:56:14.307Z,70.10
2023-03-26T00:58:41.492Z,70.28
2023-03-26T01:01:13.665Z,70.59
2023-03-26T01:03:45.847Z,70.57
2023-03-26T01:06:32.926Z,70.06
2023-03-26T01:09:05.608Z,70.20
2023-03-26T01:11:35.034Z,70.26
2023-03-26T01:14:14.998Z,70.13
2023-03-26T01:16:56.309Z,70.39
2023-03-26T01:19:38.284Z,69.88
2023-03-26T01:22:09.657Z,70.26
2023-03-26T01:24:36.394Z,70.00
2023-03-26T01:27:17.799Z,70.62
2023-03-26T01:29:52.817Z,70.76
2023-03-26T01:32:52.864Z,69.92
2023-03-26T01:35:38.552Z,70.03
2023-03-26T01:38:14.196Z,70.41
2023-03-26T01:40:43.662Z,70.53
2023-03-26T01:43:18.042Z,69.76
2023-03-26T01:45:47.806Z,70.23
2023-03-26T01:48:14.390Z,69.94
2023-03-26T01:50:41.294Z,70.46
2023-03-26T01:53:10.361Z,70.83
2023-03-26T01:55:49.755Z,70.25
2023-03-26T01:58:36.285Z,71.07
2023-03-26T02:01:20.062Z,71.41
2023-03-26T02:03:57.763Z,72.09
2023-03-26T02:06:45.997Z,71.80
2023-03-26T02:09:17.531Z,72.70
2023-03-26T02:11:45.923Z,72.95
2023-03-26T02:14:14.600Z,73.65
2023-03-26T02:16:41.200Z,73.80
2023-03-26T02:19:15.500Z,74.02
2023-03-26T02:21:46.842Z,73.62
2023-03-26T02:24:13.412Z,73.53
2023-03-26T02:26:39.990Z,73.86
2023-03-26T02:29:06.551Z,73.66
2023-03-26T02:31:33.178Z,74.21
2023-03-26T02:33:59.711Z,74.10
2023-03-26T02:36:28.148Z,74.62
2023-03-26T02:38:57.995Z,74.59
2023-03-26T02:41:24.735Z,74.74
2023-03-26T02:43:51.637Z,75.03
2023-03-26T02:46:18.272Z,75.91
2023-03-26T02:48:44.944Z,76.76
2023-03-26T02:51:11.503Z,76.50
2023-03-26T02:53:39.494Z,76.88
2023-03-26T02:56:06.956Z,76.07
2023-03-26T02:58:33.500Z,76.03
2023-03-26T03:01:03.142Z,76.35
2023-03-26T03:03:30.607Z,76.50
2023-03-26T03:05:58.110Z,75.87
2023-03-26T03:08:28.137Z,75.17
2023-03-26T03:11:02.023Z,74.63
2023-03-26T03:13:28.746Z,75.11
2023-03-26T03:15:56.103Z,75.50
2023-03-26T03:18:22.989Z,75.77
2023-03-26T03:20:50.034Z,76.67
2023-03-26T03:23:17.318Z,77.91
2023-03-26T03:25:43.896Z,77.63
2023-03-26T03:28:11.185Z,77.99
2023-03-26T03:30:37.986Z,77.91
2023-03-26T03:33:06.146Z,77.26
2023-03-26T03:35:33.732Z,78.56
2023-03-26T03:38:01.258Z,78.10
2023-03-26T03:40:28.072Z,77.70
2023-03-26T03:42:54.689Z,78.12
2023-03-26T03:45:21.440Z,78.81
2023-03-26T03:47:48.126Z,78.46
2023-03-26T03:50:14.765Z,78.65
2023-03-26T03:52:41.281Z,79.37
2023-03-26T03:55:10.557Z,78.60
2023-03-26T03:57:37.264Z,78.84
2023-03-26T04:00:06.317Z,78.25
2023-03-26T04:02:35.981Z,79.30
2023-03-26T04:05:06.391Z,79.53
2023-03-26T04:07:33.454Z,79.50
2023-03-26T04:10:02.897Z,79.30
2023-03-26T04:12:30.525Z,78.93
2023-03-26T04:14:58.184Z,78.94
2023-03-26T04:17:25.660Z,78.55
2023-03-26T04:19:55.465Z,78.55
2023-03-26T04:22:23.536Z,78.79
2023-03-26T04:24:50.224Z,78.62
2023-03-26T04:27:27.533Z,78.37
2023-03-26T04:29:57.423Z,77.84
2023-03-26T04:32:29.760Z,76.71
2023-03-26T04:35:00.375Z,76.51
2023-03-26T04:37:41.654Z,76.37
2023-03-26T04:40:16.815Z,75.55
2023-03-26T04:42:46.216Z,75.29
2023-03-26T04:45:15.609Z,75.47
2023-03-26T04:47:42.255Z,75.87
2023-03-26T04:50:10.641Z,76.34
2023-03-26T04:52:38.482Z,76.14
2023-03-26T04:55:13.812Z,77.01
2023-03-26T04:57:46.172Z,76.06
2023-03-26T05:00:16.430Z,76.09
2023-03-26T05:02:43.625Z,75.12
2023-03-26T05:05:10.822Z,75.20
2023-03-26T05:07:37.896Z,74.98
2023-03-26T05:10:05.195Z,74.60
2023-03-26T05:12:31.768Z,74.31
2023-03-26T05:14:58.315Z,74.27
2023-03-26T05:17:25.769Z,74.29
2023-03-26T05:19:52.569Z,74.41
2023-03-26T05:22:19.491Z,75.16
2023-03-26T05:24:46.007Z,75.01
2023-03-26T05:27:20.227Z,75.49
2023-03-26T05:29:46.821Z,75.20
2023-03-26T05:32:13.523Z,74.75
2023-03-26T05:34:41.569Z,75.04
2023-03-26T05:37:09.155Z,75.34
2023-03-26T05:39:35.751Z,75.17
2023-03-26T05:42:02.725Z,75.38
2023-03-26T05:44:29.383Z,74.81
2023-03-26T05:46:55.913Z,75.03
2023-03-26T05:49:22.497Z,75.23
2023-03-26T05:51:49.044Z,74.72
2023-03-26T05:54:15.655Z,74.93
2023-03-26T05:56:42.214Z,74.87
2023-03-26T05:59:08.865Z,74.53
2023-03-26T06:01:35.363Z,74.53
2023-03-26T06:04:02.071Z,74.10
2023-03-26T06:06:28.601Z,73.92
2023-03-26T06:09:01.523Z,73.13
2023-03-26T06:11:30.805Z,72.93
2023-03-26T06:13:57.848Z,72.77
2023-03-26T06:16:27.074Z,72.37
2023-03-26T06:18:56.921Z,72.43
2023-03-26T06:21:28.091Z,72.42
2023-03-26T06:23:55.711Z,72.15
2023-03-26T06:26:22.317Z,71.97
2023-03-26T06:28:49.001Z,71.47
2023-03-26T06:31:17.307Z,71.80
2023-03-26T06:33:43.919Z,71.77
2023-03-26T06:36:10.795Z,71.25
2023-03-26T06:38:37.349Z,70.80
2023-03-26T06:41:06.187Z,71.27
2023-03-26T06:43:33.952Z,71.14
2023-03-26T06:46:01.438Z,70.96
2023-03-26T06:48:28.106Z,71.18
2023-03-26T06:50:55.438Z,71.11
2023-03-26T06:53:22.209Z,71.14
2023-03-26T06:55:48.794Z,70.15
2023-03-26T06:58:16.686Z,70.68
2023-03-26T07:00:43.357Z,70.46
2023-03-26T07:03:11.427Z,70.09
2023-03-26T07:05:40.661Z,70.87
2023-03-26T07:08:07.249Z,69.82
2023-03-26T07:10:33.828Z,70.36
2023-03-26T07:13:00.401Z,69.82
2023-03-26T07:15:28.940Z,69.25
2023-03-26T07:17:56.319Z,68.51
2023-03-26T07:20:23.660Z,68.16
2023-03-26T07:22:51.085Z,67.58
2023-03-26T07:25:19.098Z,68.48
2023-03-26T07:28:06.410Z,66.93
2023-03-26T07:31:07.416Z,67.11
2023-03-26T07:33:46.870Z,66.90
2023-03-26T07:36:16.229Z,67.43
2023-03-26T07:39:00.220Z,66.63
2023-03-26T07:41:49.595Z,67.90
2023-03-26T07:44:25.271Z,67.55
2023-03-26T07:46:53.357Z,67.18
2023-03-26T07:49:20.550Z,68.16
2023-03-26T07:51:48.973Z,67.60
2023-03-26T07:54:15.912Z,67.17
2023-03-26T07:57:07.306Z,67.03
2023-03-26T08:00:09.137Z,66.45
2023-03-26T08:03:02.652Z,67.14
2023-03-26T08:05:37.275Z,67.33
2023-03-26T08:08:38.207Z,67.20
2023-03-26T08:11:23.369Z,67.26
2023-03-26T08:14:27.696Z,68.18
2023-03-26T08:17:10.687Z,67.45
2023-03-26T08:20:05.853Z,67.07
2023-03-26T08:22:41.182Z,67.00
2023-03-26T08:25:27.574Z,66.45
2023-03-26T08:28:22.097Z,66.80
2023-03-26T08:30:48.774Z,65.34
2023-03-26T08:33:19.133Z,65.65
2023-03-26T08:35:46.790Z,66.07
2023-03-26T08:38:15.683Z,65.40
2023-03-26T08:41:03.831Z,65.96
2023-03-26T08:44:04.746Z,64.76
2023-03-26T08:46:43.536Z,64.15
2023-03-26T08:49:33.530Z,64.20
2023-03-26T08:52:42.691Z,63.72
2023-03-26T08:55:28.330Z,63.88
2023-03-26T08:58:09.769Z,63.65
2023-03-26T09:00:58.036Z,62.34
2023-03-26T09:03:47.603Z,61.91
2023-03-26T09:06:43.350Z,62.82
2023-03-26T09:09:51.499Z,62.29
2023-03-26T09:12:53.022Z,62.38
2023-03-26T09:15:58.106Z,61.95
2023-03-26T09:18:45.547Z,61.41
2023-03-26T09:21:34.065Z,60.97
2023-03-26T09:24:38.228Z,61.25
2023-03-26T09:27:11.100Z,61.78
2023-03-26T09:30:15.647Z,60.62
2023-03-26T09:32:54.216Z,60.80
2023-03-26T09:35:45.660Z,59.86
2023-03-26T09:38:49.594Z,58.99
2023-03-26T09:41:37.908Z,58.74
2023-03-26T09:44:23.160Z,57.82
2023-03-26T09:47:22.313Z,56.82
2023-03-26T09:50:15.779Z,54.56
2023-03-26T09:53:07.158Z,55.68
2023-03-26T09:55:39.351Z,55.89
2023-03-26T09:58:11.536Z,55.26
2023-03-26T10:00:48.526Z,56.49
2023-03-26T10:03:47.914Z,55.69
2023-03-26T10:06:45.910Z,53.46
2023-03-26T10:09:24.629Z,53.99
2023-03-26T10:12:06.356Z,53.14
2023-03-26T10:14:40.569Z,53.02
2023-03-26T10:17:20.407Z,53.71
2023-03-26T10:20:09.852Z,53.80
2023-03-26T10:22:45.395Z,54.91
2023-03-26T10:25:11.863Z,53.81
2023-03-26T10:27:50.703Z,52.54
2023-03-26T10:30:47.920Z,52.80
2023-03-26T10:33:23.997Z,52.65
2023-03-26T10:36:13.441Z,52.53
2023-03-26T10:39:36.196Z,52.55
2023-03-26T10:42:26.476Z,52.28
2023-03-26T10:45:15.495Z,51.29
2023-03-26T10:48:03.498Z,51.50
2023-03-26T10:51:02.622Z,52.29
2023-03-26T10:53:37.351Z,52.15
2023-03-26T10:56:34.208Z,49.56
2023-03-26T10:59:12.302Z,48.88
2023-03-26T11:02:04.797Z,47.81
2023-03-26T11:04:41.844Z,47.74
2023-03-26T11:07:13.377Z,47.74
2023-03-26T11:09:59.326Z,46.78
2023-03-26T11:12:41.593Z,45.88
2023-03-26T11:15:17.197Z,45.76
2023-03-26T11:17:57.256Z,46.04
2023-03-26T11:20:51.017Z,45.66
2023-03-26T11:23:32.461Z,45.26
2023-03-26T11:26:07.294Z,45.03
2023-03-26T11:29:03.241Z,46.14
2023-03-26T11:32:06.591Z,46.41
2023-03-26T11:34:58.660Z,45.88
2023-03-26T11:37:32.743Z,45.88
2023-03-26T11:40:03.808Z,45.66
2023-03-26T11:42:30.927Z,45.45
2023-03-26T11:45:01.162Z,46.31
2023-03-26T11:48:04.119Z,46.60
2023-03-26T11:50:35.225Z,45.43
2023-03-26T11:53:22.505Z,44.81
2023-03-26T11:56:01.205Z,43.17
2023-03-26T11:59:01.313Z,43.83
2023-03-26T12:01:46.506Z,44.15
2023-03-26T12:04:17.028Z,43.99
2023-03-26T12:07:00.505Z,45.82
2023-03-26T12:09:29.313Z,45.81
2023-03-26T12:12:05.055Z,45.97
2023-03-26T12:14:36.291Z,46.29
2023-03-26T12:17:11.549Z,47.17
2023-03-26T12:19:41.224Z,46.56
2023-03-26T12:22:38.503Z,46.12
2023-03-26T12:25:18.284Z,46.48
2023-03-26T12:27:49.354Z,46.95
2023-03-26T12:30:20.595Z,47.43
2023-03-26T12:32:49.210Z,47.50
2023-03-26T12:35:27.151Z,47.61
2023-03-26T12:37:55.944Z,48.45
2023-03-26T12:40:25.337Z,48.74
2023-03-26T12:44:48.987Z,47.79
2023-03-26T12:45:44.270Z,47.24
2023-03-26T12:48:15.697Z,45.82
2023-03-26T12:51:07.147Z,46.13
2023-03-26T12:53:52.659Z,45.66
2023-03-26T12:56:21.934Z,47.31
2023-03-26T12:59:01.146Z,48.89
2023-03-26T13:01:38.311Z,48.31
2023-03-26T13:04:13.464Z,49.43
2023-03-26T13:07:00.250Z,50.04
2023-03-26T13:09:40.951Z,49.32
2023-03-26T13:12:40.498Z,47.97
2023-03-26T13:15:17.768Z,49.00
2023-03-26T13:18:21.471Z,49.49
2023-03-26T13:21:08.806Z,48.65
2023-03-26T13:23:53.586Z,49.32
2023-03-26T13:26:59.567Z,48.58
2023-03-26T13:29:46.401Z,48.88
2023-03-26T13:32:24.641Z,48.47
2023-03-26T13:35:26.490Z,48.72
2023-03-26T13:38:02.152Z,49.18
2023-03-26T13:40:55.473Z,48.94
2023-03-26T13:43:40.590Z,49.30
2023-03-26T13:46:23.949Z,49.61
2023-03-26T13:49:15.516Z,49.80
2023-03-26T13:51:52.412Z,49.57
2023-03-26T13:54:33.869Z,50.87
2023-03-26T13:57:32.381Z,52.30
2023-03-26T14:00:06.178Z,54.20
2023-03-26T14:02:39.561Z,54.99
2023-03-26T14:05:13.737Z,57.80
2023-03-26T14:07:57.334Z,59.24
2023-03-26T14:10:28.979Z,60.74
2023-03-26T14:13:20.316Z,59.20
2023-03-26T14:15:56.101Z,59.10
2023-03-26T14:18:22.685Z,58.17
2023-03-26T14:21:37.451Z,59.22
2023-03-26T14:24:12.404Z,58.42
2023-03-26T14:26:58.489Z,59.63
2023-03-26T14:29:56.653Z,61.58
2023-03-26T14:32:39.740Z,63.27
2023-03-26T14:35:39.222Z,64.00
2023-03-26T14:38:14.854Z,64.32
2023-03-26T14:41:05.599Z,64.95
2023-03-26T14:44:04.084Z,65.00
2023-03-26T14:46:40.912Z,65.00
2023-03-26T14:49:28.446Z,66.52
2023-03-26T14:52:18.465Z,66.02
2023-03-26T14:54:48.274Z,66.25
2023-03-26T14:57:36.324Z,67.50
2023-03-26T15:00:24.744Z,66.99
2023-03-26T15:03:00.616Z,66.47
2023-03-26T15:05:36.589Z,66.61
2023-03-26T15:09:00.151Z,67.14
2023-03-26T15:11:48.177Z,68.30
2023-03-26T15:14:39.231Z,67.36
2023-03-26T15:17:35.647Z,68.09
2023-03-26T15:20:35.496Z,67.12
2023-03-26T15:23:44.279Z,68.15
2023-03-26T15:26:30.608Z,68.09
2023-03-26T15:29:04.644Z,70.60
2023-03-26T15:31:55.551Z,70.88
2023-03-26T15:34:34.291Z,72.66
2023-03-26T15:37:10.648Z,72.42
2023-03-26T15:40:08.165Z,72.70
2023-03-26T15:42:48.286Z,72.63
2023-03-26T15:45:14.999Z,72.61
2023-03-26T15:47:57.986Z,73.90
2023-03-26T15:50:32.939Z,73.24
2023-03-26T15:53:02.603Z,73.35
2023-03-26T15:55:36.557Z,74.31
2023-03-26T15:58:07.799Z,75.04
2023-03-26T16:00:38.308Z,77.12
2023-03-26T16:03:10.898Z,74.96
2023-03-26T16:06:15.826Z,75.95
2023-03-26T16:09:21.991Z,76.87
2023-03-26T16:12:11.908Z,78.44
2023-03-26T16:14:43.218Z,79.75
2023-03-26T16:17:20.617Z,79.12
2023-03-26T16:19:52.064Z,78.93
2023-03-26T16:22:42.866Z,80.51
2023-03-26T16:25:27.281Z,80.14
2023-03-26T16:28:10.777Z,81.50
2023-03-26T16:30:38.206Z,81.50
2023-03-26T16:33:15.611Z,82.14
2023-03-26T16:36:02.144Z,81.07
2023-03-26T16:38:50.232Z,83.49
2023-03-26T16:41:18.972Z,84.66
2023-03-26T16:43:59.054Z,84.46
2023-03-26T16:46:50.491Z,85.27
2023-03-26T16:49:33.595Z,86.56
2023-03-26T16:52:20.976Z,85.59
2023-03-26T16:54:47.490Z,86.09
2023-03-26T16:57:50.096Z,85.23
2023-03-26T17:00:16.658Z,85.32
2023-03-26T17:03:08.077Z,85.87
2023-03-26T17:05:43.918Z,86.74
2023-03-26T17:08:36.179Z,86.93
2023-03-26T17:11:24.287Z,86.46
2023-03-26T17:14:13.309Z,86.46
2023-03-26T17:16:51.796Z,85.53
2023-03-26T17:19:21.232Z,86.42
2023-03-26T17:22:12.034Z,86.35
2023-03-26T17:24:48.866Z,86.61
2023-03-26T17:27:47.053Z,85.95
2023-03-26T17:30:38.103Z,87.09
2023-03-26T17:33:05.996Z,87.80
2023-03-26T17:35:39.572Z,88.46
2023-03-26T17:38:18.038Z,88.75
2023-03-26T17:41:00.161Z,89.21
2023-03-26T17:43:38.730Z,88.62
2023-03-26T17:46:32.916Z,87.56
2023-03-26T17:49:01.587Z,84.58
2023-03-26T17:51:46.479Z,86.38
2023-03-26T17:54:39.449Z,86.92
2023-03-26T17:57:40.087Z,86.69
2023-03-26T18:00:16.283Z,87.02
2023-03-26T18:02:50.562Z,86.31
2023-03-26T18:05:17.656Z,86.52
2023-03-26T18:08:06.587Z,87.48
2023-03-26T18:10:54.298Z,88.27
2023-03-26T18:13:53.856Z,88.96
2023-03-26T18:16:25.400Z,87.92
2023-03-26T18:18:53.737Z,89.17
2023-03-26T18:21:40.505Z,88.87
2023-03-26T18:24:14.109Z,88.53
2023-03-26T18:26:55.418Z,88.80
2023-03-26T18:29:33.622Z,89.53
2023-03-26T18:32:22.247Z,90.07
2023-03-26T18:34:54.108Z,89.01
2023-03-26T18:37:24.080Z,88.20
2023-03-26T18:40:24.501Z,88.04
2023-03-26T18:42:59.330Z,86.68
2023-03-26T18:45:45.840Z,87.25
2023-03-26T18:48:19.114Z,87.66
2023-03-26T18:50:47.429Z,88.79
2023-03-26T18:53:20.950Z,89.16
2023-03-26T18:55:50.528Z,88.37
2023-03-26T18:58:31.417Z,89.31
2023-03-26T19:01:04.503Z,89.71
2023-03-26T19:03:35.459Z,88.89
2023-03-26T19:06:04.665Z,89.72
2023-03-26T19:08:32.755Z,89.72
2023-03-26T19:11:04.787Z,90.82
2023-03-26T19:13:33.124Z,90.93
2023-03-26T19:16:07.846Z,90.46
2023-03-26T19:18:37.479Z,91.69
2023-03-26T19:21:04.577Z,91.62
2023-03-26T19:23:42.085Z,92.63
2023-03-26T19:26:10.923Z,92.99
2023-03-26T19:28:50.712Z,93.09
2023-03-26T19:31:31.709Z,93.15
2023-03-26T19:34:15.609Z,93.45
2023-03-26T19:36:58.230Z,93.14
2023-03-26T19:39:38.170Z,93.45
2023-03-26T19:42:06.488Z,92.52
2023-03-26T19:44:33.666Z,92.75
2023-03-26T19:47:08.358Z,92.47
2023-03-26T19:49:47.246Z,93.35
2023-03-26T19:52:15.110Z,92.73
2023-03-26T19:55:03.691Z,93.64
2023-03-26T19:57:32.194Z,93.11
2023-03-26T19:59:59.769Z,93.52
2023-03-26T20:02:27.486Z,94.26
2023-03-26T20:04:54.185Z,94.07
2023-03-26T20:07:35.502Z,93.85
2023-03-26T20:10:02.937Z,93.06
2023-03-26T20:12:29.701Z,92.84
2023-03-26T20:14:56.229Z,92.96
2023-03-26T20:17:22.734Z,92.69
2023-03-26T20:19:49.222Z,93.38
2023-03-26T20:22:20.089Z,92.19
2023-03-26T20:24:46.813Z,92.70
2023-03-26T20:27:14.560Z,91.13
2023-03-26T20:29:42.253Z,90.48
2023-03-26T20:32:20.364Z,91.05
2023-03-26T20:34:49.859Z,90.25
2023-03-26T20:37:17.577Z,90.60
2023-03-26T20:39:45.652Z,88.83
2023-03-26T20:42:15.396Z,88.92
2023-03-26T20:44:42.830Z,88.87
2023-03-26T20:47:12.687Z,88.27
2023-03-26T20:49:40.254Z,86.93
2023-03-26T20:52:06.939Z,86.33
2023-03-26T20:54:33.544Z,87.38
2023-03-26T20:57:00.276Z,87.60
2023-03-26T20:59:28.421Z,87.29
2023-03-26T21:01:56.993Z,88.08
2023-03-26T21:04:24.791Z,86.31
2023-03-26T21:06:53.418Z,86.49
2023-03-26T21:09:25.606Z,86.73
2023-03-26T21:11:52.300Z,87.34
2023-03-26T21:14:21.147Z,87.17
2023-03-26T21:16:48.284Z,87.78
2023-03-26T21:19:15.811Z,87.58
2023-03-26T21:21:48.244Z,86.59
2023-03-26T21:24:23.932Z,88.15
2023-03-26T21:26:50.536Z,86.99
2023-03-26T21:29:17.305Z,87.38
2023-03-26T21:31:44.355Z,88.10
2023-03-26T21:34:13.270Z,88.37
2023-03-26T21:36:40.353Z,88.05
2023-03-26T21:39:07.784Z,87.76
2023-03-26T21:42:04.780Z,87.84
2023-03-26T21:44:33.542Z,87.90
2023-03-26T21:47:00.851Z,88.66
2023-03-26T21:49:28.005Z,90.24
2023-03-26T21:51:54.930Z,89.77
2023-03-26T21:54:27.941Z,89.32
2023-03-26T21:57:26.653Z,89.30
2023-03-26T22:00:16.528Z,88.59
2023-03-26T22:03:19.959Z,89.36
2023-03-26T22:05:52.371Z,89.75
2023-03-26T22:08:27.216Z,90.96
2023-03-26T22:10:53.883Z,91.35
2023-03-26T22:13:20.573Z,90.26
2023-03-26T22:15:47.166Z,90.84
2023-03-26T22:18:14.295Z,91.02
2023-03-26T22:20:43.341Z,90.05
2023-03-26T22:23:09.965Z,88.89
2023-03-26T22:25:36.503Z,89.57
2023-03-26T22:28:04.373Z,89.16
2023-03-26T22:30:31.518Z,89.99
2023-03-26T22:32:58.813Z,90.42
2023-03-26T22:35:26.228Z,90.10
2023-03-26T22:37:53.017Z,89.68
2023-03-26T22:40:27.788Z,89.96
2023-03-26T22:42:54.383Z,90.97
2023-03-26T22:45:22.654Z,91.66
2023-03-26T22:47:49.385Z,91.88
2023-03-26T22:50:16.129Z,92.44
2023-03-26T22:52:42.677Z,92.46
2023-03-26T22:55:10.937Z,93.01
2023-03-26T22:57:38.644Z,92.36
2023-03-26T23:00:14.897Z,92.09
2023-03-26T23:02:42.088Z,92.15
2023-03-26T23:05:09.221Z,92.36
2023-03-26T23:07:35.807Z,92.19
2023-03-26T23:10:02.381Z,92.00
2023-03-26T23:12:28.962Z,91.00
2023-03-26T23:14:55.481Z,91.67
2023-03-26T23:17:22.325Z,91.47
2023-03-26T23:19:49.369Z,91.64
2023-03-26T23:22:16.483Z,90.82
2023-03-26T23:24:43.057Z,90.24
2023-03-26T23:27:10.743Z,91.54
2023-03-26T23:29:37.377Z,91.81
2023-03-26T23:32:04.100Z,91.75
2023-03-26T23:34:51.714Z,92.29
2023-03-26T23:37:23.216Z,92.65
2023-03-26T23:39:51.149Z,92.32
2023-03-26T23:42:28.353Z,92.32
2023-03-26T23:44:56.859Z,92.13
2023-03-26T23:47:23.746Z,92.32
2023-03-26T23:49:50.564Z,92.21
2023-03-26T23:52:17.103Z,93.17
2023-03-26T23:54:44.699Z,92.50
2023-03-26T23:57:11.362Z,92.43
2023-03-26T23:59:38.286Z,91.61
